Rechercher aéroport 
image banner adimage banner adimage banner ad
image banner ad

PN66 - Dunlea Airpark

Situé à New Alexandria, United States

ICAO - PN66, IATA -

Données fournies par Airmate  

Information générale

Coordonnées: N40°25'32" W79°21'49"
Élévation : 1220 feet MSL.
Variation magnétique : -08° East
Voir autres Aéroports à Pennsylvania

Données opérationnelles

Special qualification required
Heure actuelle UTC:
Heure actuelle locale:
Météo à : KLBE - Arnold Palmer Rgnl ( 17 km )
METAR: KLBE 150635Z AUTO 00000KT 3/4SM BR VV005 14/14 A2990 RMK AO2
TAF: KLBE 150536Z 1506/1606 00000KT 4SM BR SCT002 TEMPO 1509/1512 1/2SM FG BKN001 FM151300 30006KT P6SM SCT040 FM151600 30009G17KT P6SM SCT050 FM160000 31007KT P6SM SCT150
Voir NOTAMs / SUP AIP / TFR affectant cet aéroport [VIEW]
Fréquences de communication: [VIEW]

Pistes:

Identifiant RWYQFULongueur (ft)Largeur (ft)SurfaceLDA (ft)
052000100GRASS
232000100GRASS

Coordonnées de l'aéroport

Adresse: New Alexandria United States

Vue satellite de PN66